createdAt,value
2023-04-16T08:41:58.859Z,90775.28
2023-04-16T08:44:43.870Z,90769.38
2023-04-16T08:47:28.816Z,90767.84
2023-04-16T08:50:13.728Z,90766.78
2023-04-16T08:52:58.604Z,90761.88
2023-04-16T08:55:43.598Z,90760.38
2023-04-16T08:58:28.652Z,90751.94
2023-04-16T09:01:14.268Z,90753.91
2023-04-16T09:03:59.293Z,90754.81
2023-04-16T09:06:44.156Z,90759.28
2023-04-16T09:09:29.184Z,90759.84
2023-04-16T09:12:14.070Z,90759.47
2023-04-16T09:14:58.987Z,90749.44
2023-04-16T09:17:43.980Z,90752.94
2023-04-16T09:20:28.959Z,90757.66
2023-04-16T09:23:14.094Z,90756.13
2023-04-16T09:25:58.914Z,90758.81
2023-04-16T09:28:43.845Z,90763.28
2023-04-16T09:31:28.754Z,90753.84
2023-04-16T09:34:14.372Z,90753.38
2023-04-16T09:36:59.059Z,90754.47
2023-04-16T09:39:44.169Z,90748.66
2023-04-16T09:42:29.285Z,90750.47
2023-04-16T09:45:14.303Z,90746.50
2023-04-16T09:47:59.321Z,90752.03
2023-04-16T09:50:44.317Z,90742.72
2023-04-16T09:53:29.274Z,90745.91
2023-04-16T09:56:14.124Z,90741.25
2023-04-16T09:58:59.180Z,90738.47
2023-04-16T10:01:44.369Z,90745.78
2023-04-16T10:04:29.316Z,90742.25
2023-04-16T10:07:14.148Z,90736.56
2023-04-16T10:09:59.135Z,90741.22
2023-04-16T10:12:44.131Z,90739.63
2023-04-16T10:15:29.048Z,90738.53
2023-04-16T10:18:14.063Z,90739.81
2023-04-16T10:20:58.970Z,90739.19
2023-04-16T10:23:44.041Z,90742.16
2023-04-16T10:26:29.055Z,90741.66
2023-04-16T10:29:13.828Z,90750.41
2023-04-16T10:31:59.097Z,90742.25
2023-04-16T10:34:43.991Z,90745.94
2023-04-16T10:37:28.967Z,90740.75
2023-04-16T10:40:13.867Z,90743.25
2023-04-16T10:42:58.933Z,90736.75
2023-04-16T10:45:43.780Z,90738.59
2023-04-16T10:48:33.129Z,90738.88
2023-04-16T10:51:27.371Z,90723.06
2023-04-16T10:54:12.341Z,90721.97
2023-04-16T10:56:57.331Z,90724.84
2023-04-16T10:59:42.293Z,90714.97
2023-04-16T11:02:27.960Z,90732.31
2023-04-16T11:05:12.839Z,90724.00
2023-04-16T11:07:57.729Z,90718.75
2023-04-16T11:10:42.608Z,90717.94
2023-04-16T11:13:27.494Z,90722.53
2023-04-16T11:16:12.577Z,90719.78
2023-04-16T11:18:57.565Z,90715.69
2023-04-16T11:21:44.899Z,90718.59
2023-04-16T11:24:30.423Z,90727.13
2023-04-16T11:27:15.280Z,90722.66
2023-04-16T11:30:00.221Z,90718.06
2023-04-16T11:32:45.178Z,90715.25
2023-04-16T11:35:30.029Z,90714.66
2023-04-16T11:38:15.007Z,90713.06
2023-04-16T11:41:00.209Z,90706.91
2023-04-16T11:43:45.115Z,90709.75
2023-04-16T11:46:30.150Z,90708.13
2023-04-16T11:49:14.948Z,90713.84
2023-04-16T11:51:59.905Z,90716.91
2023-04-16T11:54:44.773Z,90711.66
2023-04-16T11:57:29.655Z,90710.13
2023-04-16T12:00:14.765Z,90711.00
2023-04-16T12:02:59.807Z,90707.47
2023-04-16T12:05:44.504Z,90704.84
2023-04-16T12:08:29.339Z,90702.16
2023-04-16T12:11:14.336Z,90703.09
2023-04-16T12:13:59.216Z,90701.16
2023-04-16T12:16:44.312Z,90704.06
2023-04-16T12:19:29.136Z,90697.06
2023-04-16T12:22:14.013Z,90701.38
2023-04-16T12:24:59.092Z,90701.19
2023-04-16T12:27:44.030Z,90705.19
2023-04-16T12:30:28.848Z,90701.63
2023-04-16T12:33:13.691Z,90702.78
2023-04-16T12:35:58.721Z,90694.59
2023-04-16T12:38:44.117Z,90695.34
2023-04-16T12:41:29.188Z,90691.41
2023-04-16T12:44:14.204Z,90689.75
2023-04-16T12:46:59.165Z,90694.19
2023-04-16T12:49:44.159Z,90683.78
2023-04-16T12:52:29.579Z,90689.31
2023-04-16T12:55:14.583Z,90684.09
2023-04-16T12:57:59.486Z,90683.97
2023-04-16T13:00:44.840Z,90679.03
2023-04-16T13:03:30.210Z,90681.97
2023-04-16T13:06:29.151Z,90684.34
2023-04-16T13:09:14.280Z,90681.38
2023-04-16T13:11:59.863Z,90686.53
2023-04-16T13:14:45.279Z,90676.38
2023-04-16T13:17:30.578Z,90676.66
2023-04-16T13:20:15.601Z,90669.06
2023-04-16T13:23:01.453Z,90664.47
2023-04-16T13:25:46.478Z,90671.91
2023-04-16T13:28:31.486Z,90672.16
2023-04-16T13:31:28.209Z,90669.75
2023-04-16T13:34:13.613Z,90667.81
2023-04-16T13:36:58.593Z,90670.88
2023-04-16T13:39:43.776Z,90664.16
2023-04-16T13:42:28.537Z,90668.22
2023-04-16T13:45:13.685Z,90667.34
2023-04-16T13:47:58.494Z,90667.16
2023-04-16T13:50:43.467Z,90660.88
2023-04-16T13:53:28.456Z,90664.22
2023-04-16T13:56:13.498Z,90664.38
2023-04-16T13:58:58.881Z,90667.75
2023-04-16T14:01:43.632Z,90664.06
2023-04-16T14:04:28.352Z,90664.09
2023-04-16T14:07:13.218Z,90663.88
2023-04-16T14:09:58.393Z,90658.13
2023-04-16T14:12:43.135Z,90659.53
2023-04-16T14:15:28.299Z,90653.63
2023-04-16T14:18:13.193Z,90656.50
2023-04-16T14:20:58.064Z,90657.66
2023-04-16T14:23:43.218Z,90660.00
2023-04-16T14:26:28.079Z,90666.66
2023-04-16T14:29:13.076Z,90660.22
2023-04-16T14:31:57.901Z,90660.41
2023-04-16T14:34:42.813Z,90656.03
2023-04-16T14:37:27.683Z,90655.09
2023-04-16T14:40:12.566Z,90655.53
2023-04-16T14:42:57.422Z,90661.00
2023-04-16T14:45:42.357Z,90664.16
2023-04-16T14:48:27.126Z,90659.19
2023-04-16T14:51:12.118Z,90652.59
2023-04-16T14:53:57.190Z,90662.94
2023-04-16T14:56:42.166Z,90651.59
2023-04-16T14:59:27.192Z,90653.66
2023-04-16T15:02:12.201Z,90659.38
2023-04-16T15:04:57.071Z,90657.81
2023-04-16T15:07:41.898Z,90650.59
2023-04-16T15:10:26.810Z,90657.63
2023-04-16T15:13:11.925Z,90659.63
2023-04-16T15:15:56.941Z,90660.00
2023-04-16T15:18:41.979Z,90652.53
2023-04-16T15:21:26.834Z,90660.34
2023-04-16T15:24:12.040Z,90666.34
2023-04-16T15:26:56.860Z,90665.78
2023-04-16T15:29:41.863Z,90663.97
2023-04-16T15:32:27.014Z,90664.03
2023-04-16T15:35:11.909Z,90666.34
2023-04-16T15:37:56.964Z,90670.50
2023-04-16T15:40:41.897Z,90673.34
2023-04-16T15:43:26.797Z,90665.84
2023-04-16T15:46:11.846Z,90664.13
2023-04-16T15:48:56.732Z,90668.59
2023-04-16T15:51:41.682Z,90665.41
2023-04-16T15:54:26.660Z,90667.69
2023-04-16T15:57:11.685Z,90669.28
2023-04-16T16:00:06.497Z,90664.91
2023-04-16T16:02:52.232Z,90669.00
2023-04-16T16:05:37.324Z,90670.84
2023-04-16T16:08:22.174Z,90668.75
2023-04-16T16:11:07.152Z,90664.03
2023-04-16T16:13:52.312Z,90671.31
2023-04-16T16:16:37.322Z,90673.41
2023-04-16T16:19:22.298Z,90666.41
2023-04-16T16:22:07.196Z,90663.63
2023-04-16T16:24:52.213Z,90671.41
2023-04-16T16:27:37.145Z,90669.00
2023-04-16T16:30:22.064Z,90668.47
2023-04-16T16:33:07.216Z,90675.66
2023-04-16T16:35:52.274Z,90672.66
2023-04-16T16:38:37.241Z,90676.50
2023-04-16T16:41:22.189Z,90678.00
2023-04-16T16:44:07.182Z,90674.91
2023-04-16T16:46:52.031Z,90682.63
2023-04-16T16:49:36.997Z,90683.28
2023-04-16T16:52:21.749Z,90681.88
2023-04-16T16:55:06.710Z,90693.03
2023-04-16T16:57:51.659Z,90701.00
2023-04-16T17:00:36.645Z,90691.78
2023-04-16T17:03:21.719Z,90690.81
2023-04-16T17:06:06.448Z,90701.91
2023-04-16T17:08:51.427Z,90697.28
2023-04-16T17:11:36.298Z,90698.03
2023-04-16T17:14:24.373Z,90706.91
2023-04-16T17:17:09.309Z,90704.56
2023-04-16T17:19:54.004Z,90704.78
2023-04-16T17:22:39.020Z,90711.63
2023-04-16T17:25:24.781Z,90715.56
2023-04-16T17:28:12.795Z,90721.09
2023-04-16T17:30:57.668Z,90720.88
2023-04-16T17:33:42.584Z,90725.41
2023-04-16T17:36:27.387Z,90721.16
2023-04-16T17:39:12.391Z,90723.69
2023-04-16T17:41:57.252Z,90723.69
2023-04-16T17:44:42.209Z,90730.75
2023-04-16T17:47:28.473Z,90732.03
2023-04-16T17:50:13.321Z,90729.06
2023-04-16T17:52:58.443Z,90730.84
2023-04-16T17:55:43.910Z,90737.69
2023-04-16T17:58:29.101Z,90737.06
2023-04-16T18:01:14.285Z,90740.56
2023-04-16T18:03:59.338Z,90738.94
2023-04-16T18:06:44.478Z,90741.53
2023-04-16T18:09:29.823Z,90744.88
2023-04-16T18:12:15.231Z,90743.09
2023-04-16T18:14:59.903Z,90744.75
2023-04-16T18:17:44.873Z,90745.03
2023-04-16T18:20:29.878Z,90760.06
2023-04-16T18:23:14.806Z,90754.56
2023-04-16T18:25:59.790Z,90763.78
2023-04-16T18:28:45.411Z,90766.38
2023-04-16T18:31:30.431Z,90762.59
2023-04-16T18:34:15.151Z,90765.13
2023-04-16T18:36:59.979Z,90769.22
2023-04-16T18:39:44.693Z,90765.44
2023-04-16T18:42:31.768Z,90767.53
2023-04-16T18:45:21.145Z,90769.84
2023-04-16T18:48:06.733Z,90771.84
2023-04-16T18:50:51.725Z,90775.41
2023-04-16T18:53:36.584Z,90783.88
2023-04-16T18:56:21.357Z,90783.78
2023-04-16T18:59:06.161Z,90786.31
2023-04-16T19:01:53.381Z,90791.56
2023-04-16T19:04:38.383Z,90784.91
2023-04-16T19:07:23.359Z,90792.81
2023-04-16T19:10:08.091Z,90789.16
2023-04-16T19:12:52.932Z,90799.75
2023-04-16T19:15:37.803Z,90800.81
2023-04-16T19:18:22.589Z,90801.34
2023-04-16T19:21:07.650Z,90804.38
2023-04-16T19:23:52.467Z,90810.22
2023-04-16T19:26:37.454Z,90815.47
2023-04-16T19:29:22.316Z,90818.88
2023-04-16T19:32:07.263Z,90815.38
2023-04-16T19:34:51.994Z,90815.63
2023-04-16T19:37:36.670Z,90815.63
2023-04-16T19:40:21.618Z,90819.84
2023-04-16T19:43:06.334Z,90824.16
2023-04-16T19:45:51.284Z,90834.31
2023-04-16T19:48:35.874Z,90841.91
2023-04-16T19:51:21.028Z,90833.16
2023-04-16T19:54:05.790Z,90833.91
2023-04-16T19:56:50.770Z,90829.75
2023-04-16T19:59:35.835Z,90840.25
2023-04-16T20:02:20.673Z,90843.56
2023-04-16T20:05:05.383Z,90844.81
2023-04-16T20:07:52.566Z,90833.34
2023-04-16T20:10:37.719Z,90829.13
2023-04-16T20:13:22.561Z,90825.16
2023-04-16T20:16:07.504Z,90823.16
2023-04-16T20:18:52.484Z,90831.47
2023-04-16T20:21:37.522Z,90828.22
2023-04-16T20:24:22.274Z,90829.22
2023-04-16T20:27:07.185Z,90835.25
2023-04-16T20:29:51.954Z,90833.34
2023-04-16T20:32:36.821Z,90839.38
2023-04-16T20:35:21.643Z,90835.47
2023-04-16T20:38:06.520Z,90850.44
2023-04-16T20:40:51.847Z,90844.66
2023-04-16T20:43:36.948Z,90841.22
2023-04-16T20:46:22.648Z,90836.03
2023-04-16T20:49:09.034Z,90836.28
2023-04-16T20:51:53.920Z,90838.31
2023-04-16T20:54:38.604Z,90834.59
2023-04-16T20:57:23.451Z,90839.81
2023-04-16T21:00:08.306Z,90830.63
2023-04-16T21:02:53.516Z,90824.94
2023-04-16T21:05:38.228Z,90826.69
2023-04-16T21:08:23.234Z,90826.72
2023-04-16T21:11:08.009Z,90830.97
2023-04-16T21:13:52.810Z,90827.75
2023-04-16T21:16:37.653Z,90814.06
2023-04-16T21:19:22.634Z,90825.75
2023-04-16T21:22:07.499Z,90821.03
2023-04-16T21:24:52.468Z,90821.78
2023-04-16T21:27:37.521Z,90821.25
2023-04-16T21:30:22.311Z,90817.59
2023-04-16T21:33:07.206Z,90823.56
2023-04-16T21:35:52.064Z,90825.56
2023-04-16T21:38:37.096Z,90826.56
2023-04-16T21:41:21.877Z,90821.38
2023-04-16T21:44:06.865Z,90823.38
2023-04-16T21:46:51.636Z,90821.66
2023-04-16T21:49:36.701Z,90820.41
2023-04-16T21:52:21.767Z,90816.94
2023-04-16T21:55:06.567Z,90819.94
2023-04-16T21:57:51.578Z,90825.19
2023-04-16T22:00:36.597Z,90825.69
2023-04-16T22:03:21.812Z,90819.22
2023-04-16T22:06:06.609Z,90819.22
2023-04-16T22:08:51.678Z,90819.97
2023-04-16T22:11:36.664Z,90817.75
2023-04-16T22:14:21.765Z,90814.00
2023-04-16T22:17:06.629Z,90820.97
2023-04-16T22:19:51.513Z,90810.78
2023-04-16T22:22:36.667Z,90820.72
2023-04-16T22:25:21.466Z,90809.06
2023-04-16T22:28:06.162Z,90811.06
2023-04-16T22:30:51.219Z,90805.09
2023-04-16T22:33:36.419Z,90811.56
2023-04-16T22:36:21.131Z,90806.81
2023-04-16T22:39:06.281Z,90808.34
2023-04-16T22:41:51.587Z,90801.38
2023-04-16T22:44:36.379Z,90801.84
2023-04-16T22:47:21.570Z,90811.06
2023-04-16T22:50:06.488Z,90805.84
2023-04-16T22:52:51.171Z,90797.13
2023-04-16T22:55:36.057Z,90802.88
2023-04-16T22:58:21.034Z,90807.06
2023-04-16T23:01:06.080Z,90791.69
2023-04-16T23:03:51.171Z,90790.94
2023-04-16T23:06:36.101Z,90797.41
2023-04-16T23:09:21.165Z,90802.84
2023-04-16T23:12:06.142Z,90806.06
2023-04-16T23:14:51.104Z,90795.13
2023-04-16T23:17:36.069Z,90797.84
2023-04-16T23:20:20.820Z,90806.78
2023-04-16T23:23:05.784Z,90803.56
2023-04-16T23:25:50.604Z,90809.28
2023-04-16T23:28:35.585Z,90807.03
2023-04-16T23:31:20.637Z,90802.31
2023-04-16T23:34:05.425Z,90805.78
2023-04-16T23:36:50.424Z,90812.97
2023-04-16T23:39:35.342Z,90805.53
2023-04-16T23:42:20.327Z,90805.00
2023-04-16T23:45:05.135Z,90810.47
2023-04-16T23:47:50.119Z,90806.72
2023-04-16T23:50:35.211Z,90808.94
2023-04-16T23:53:20.345Z,90808.69
2023-04-16T23:56:05.398Z,90817.38
2023-04-16T23:58:50.132Z,90809.94
